createdAt,value
2019-04-21T00:01:12.378Z,9.60
2019-04-21T00:03:46.061Z,9.60
2019-04-21T00:06:32.193Z,9.50
2019-04-21T00:09:09.348Z,9.60
2019-04-21T00:11:34.312Z,9.60
2019-04-21T00:13:56.406Z,9.50
2019-04-21T00:16:23.776Z,9.50
2019-04-21T00:19:03.323Z,9.60
2019-04-21T00:21:34.545Z,9.60
2019-04-21T00:24:23.843Z,9.50
2019-04-21T00:27:01.119Z,9.50
2019-04-21T00:29:36.623Z,9.50
2019-04-21T00:31:58.934Z,9.40
2019-04-21T00:34:15.457Z,9.40
2019-04-21T00:36:58.579Z,9.30
2019-04-21T00:39:47.100Z,9.30
2019-04-21T00:42:08.689Z,9.20
2019-04-21T00:44:29.553Z,9.20
2019-04-21T00:47:08.507Z,9.20
2019-04-21T00:49:43.530Z,9.20
2019-04-21T00:52:46.013Z,9.20
2019-04-21T00:55:18.130Z,9.10
2019-04-21T00:57:42.801Z,9.00
2019-04-21T01:00:10.132Z,9.00
2019-04-21T01:02:41.335Z,9.00
2019-04-21T01:05:15.438Z,8.90
2019-04-21T01:07:35.994Z,8.90
2019-04-21T01:10:01.414Z,8.80
2019-04-21T01:12:45.393Z,8.70
2019-04-21T01:15:22.712Z,8.60
2019-04-21T01:17:44.638Z,8.60
2019-04-21T01:20:06.692Z,8.60
2019-04-21T01:22:22.357Z,8.60
2019-04-21T01:25:02.964Z,8.70
2019-04-21T01:27:45.686Z,8.70
2019-04-21T01:30:16.343Z,8.60
2019-04-21T01:32:49.414Z,8.50
2019-04-21T01:35:14.709Z,8.50
2019-04-21T01:37:52.406Z,8.50
2019-04-21T01:40:26.029Z,8.50
2019-04-21T01:42:51.063Z,8.50
2019-04-21T01:45:24.631Z,8.50
2019-04-21T01:47:46.446Z,8.50
2019-04-21T01:50:19.968Z,8.40
2019-04-21T01:52:55.870Z,8.40
2019-04-21T01:55:58.843Z,8.30
2019-04-21T01:58:21.004Z,8.20
2019-04-21T02:01:10.098Z,8.30
2019-04-21T02:06:18.144Z,8.20
2019-04-21T02:08:44.773Z,8.20
2019-04-21T02:11:26.124Z,8.10
2019-04-21T02:13:57.248Z,8.10
2019-04-21T02:16:23.425Z,8.10
2019-04-21T02:18:54.415Z,8.00
2019-04-21T02:21:21.693Z,7.90
2019-04-21T02:24:04.718Z,7.90
2019-04-21T02:26:35.693Z,7.90
2019-04-21T02:29:07.083Z,7.80
2019-04-21T02:32:04.260Z,7.80
2019-04-21T02:34:32.243Z,7.90
2019-04-21T02:37:00.364Z,7.80
2019-04-21T02:39:21.112Z,7.70
2019-04-21T02:41:57.816Z,7.60
2019-04-21T02:44:32.722Z,7.60
2019-04-21T02:47:19.075Z,7.50
2019-04-21T02:52:02.167Z,7.50
2019-04-21T02:59:58.302Z,7.30
2019-04-21T03:02:54.581Z,7.40
2019-04-21T03:08:15.420Z,7.60
2019-04-21T03:10:51.772Z,7.60
2019-04-21T03:13:21.769Z,7.60
2019-04-21T03:15:55.588Z,7.50
2019-04-21T03:20:56.855Z,7.40
2019-04-21T03:23:31.990Z,7.40
2019-04-21T03:25:56.671Z,7.40
2019-04-21T03:28:25.988Z,7.40
2019-04-21T03:38:40.585Z,7.30
2019-04-21T03:41:05.183Z,7.20
2019-04-21T03:43:34.581Z,7.10
2019-04-21T03:46:08.543Z,7.20
2019-04-21T03:48:41.096Z,7.30
2019-04-21T03:51:13.834Z,7.30
2019-04-21T03:53:37.836Z,7.30
2019-04-21T03:56:14.844Z,7.30
2019-04-21T04:01:53.439Z,7.30
2019-04-21T04:07:33.759Z,7.10
2019-04-21T04:12:35.828Z,7.10
2019-04-21T04:15:09.416Z,7.10
2019-04-21T04:17:36.622Z,7.20
2019-04-21T04:20:18.916Z,7.20
2019-04-21T04:22:49.686Z,7.40
2019-04-21T04:25:09.639Z,7.50
2019-04-21T04:32:42.349Z,8.30
2019-04-21T04:40:38.698Z,9.60
2019-04-21T04:43:19.321Z,9.80
2019-04-21T04:45:48.382Z,10.10
2019-04-21T04:48:13.440Z,10.50
2019-04-21T04:53:30.991Z,11.10
2019-04-21T04:58:35.512Z,11.50
2019-04-21T05:03:36.457Z,11.80
2019-04-21T05:09:03.935Z,11.80
2019-04-21T05:14:02.630Z,11.80
2019-04-21T05:23:51.081Z,9.90
2019-04-21T05:26:18.546Z,9.60
2019-04-21T05:28:48.631Z,9.40
2019-04-21T05:31:49.602Z,9.30
2019-04-21T05:34:22.087Z,9.30
2019-04-21T05:37:14.128Z,9.20
2019-04-21T05:39:52.280Z,9.20
2019-04-21T05:42:15.319Z,9.30
2019-04-21T05:47:49.536Z,9.60
2019-04-21T05:50:14.711Z,9.70
2019-04-21T05:52:51.854Z,9.70
2019-04-21T05:55:34.014Z,9.80
2019-04-21T05:58:00.782Z,10.00
2019-04-21T06:00:56.131Z,10.00
2019-04-21T06:03:05.663Z,10.20
2019-04-21T06:08:07.773Z,10.50
2019-04-21T06:10:44.631Z,10.50
2019-04-21T06:13:13.327Z,10.60
2019-04-21T06:15:51.334Z,10.70
2019-04-21T06:18:20.100Z,10.90
2019-04-21T06:20:46.707Z,11.00
2019-04-21T06:23:17.927Z,11.20
2019-04-21T06:28:19.187Z,11.60
2019-04-21T06:30:59.331Z,11.70
2019-04-21T06:33:32.301Z,11.70
2019-04-21T06:41:49.213Z,12.20
2019-04-21T06:44:12.839Z,12.40
2019-04-21T06:46:35.492Z,12.50
2019-04-21T06:48:59.965Z,12.60
2019-04-21T06:51:33.711Z,12.80
2019-04-21T06:54:07.493Z,13.00
2019-04-21T06:56:38.034Z,13.10
2019-04-21T07:01:37.803Z,13.30
2019-04-21T07:06:46.970Z,13.40
2019-04-21T07:11:36.771Z,13.50
2019-04-21T07:16:47.993Z,13.90
2019-04-21T07:19:28.418Z,13.90
2019-04-21T07:21:46.747Z,14.00
2019-04-21T07:24:21.861Z,13.90
2019-04-21T07:26:51.333Z,14.00
2019-04-21T07:29:20.447Z,14.10
2019-04-21T07:31:58.962Z,14.30
2019-04-21T07:34:28.840Z,14.40
2019-04-21T07:36:54.589Z,14.50
2019-04-21T07:39:23.456Z,14.60
2019-04-21T07:41:57.383Z,14.60
2019-04-21T07:44:25.782Z,14.90
2019-04-21T07:46:54.085Z,15.20
2019-04-21T07:49:46.457Z,15.30
2019-04-21T07:52:48.981Z,15.20
2019-04-21T07:57:39.450Z,15.50
2019-04-21T08:00:29.543Z,15.70
2019-04-21T08:02:51.165Z,15.90
2019-04-21T08:05:27.924Z,16.00
2019-04-21T08:07:59.125Z,16.10
2019-04-21T08:10:21.210Z,16.20
2019-04-21T08:12:54.284Z,16.20
2019-04-21T08:15:30.959Z,16.40
2019-04-21T08:17:54.814Z,16.50
2019-04-21T08:20:24.660Z,16.60
2019-04-21T08:22:58.923Z,16.60
2019-04-21T08:25:54.694Z,16.50
2019-04-21T08:28:05.302Z,16.60
2019-04-21T08:33:19.053Z,16.80
2019-04-21T08:38:08.544Z,17.00
2019-04-21T08:40:40.828Z,17.20
2019-04-21T08:43:10.938Z,17.20
2019-04-21T08:45:41.392Z,17.50
2019-04-21T08:48:12.155Z,17.50
2019-04-21T08:50:44.288Z,17.40
2019-04-21T08:53:12.553Z,17.50
2019-04-21T08:56:10.597Z,17.60
2019-04-21T08:59:02.248Z,17.60
2019-04-21T09:01:43.461Z,17.50
2019-04-21T09:04:18.543Z,17.50
2019-04-21T09:06:58.696Z,17.50
2019-04-21T09:09:27.832Z,17.70
2019-04-21T09:11:56.132Z,17.80
2019-04-21T09:14:27.342Z,17.80
2019-04-21T09:16:52.905Z,18.10
2019-04-21T09:19:33.640Z,18.10
2019-04-21T09:21:54.982Z,18.00
2019-04-21T09:24:29.438Z,18.10
2019-04-21T09:26:57.598Z,18.30
2019-04-21T09:29:25.750Z,18.20
2019-04-21T09:31:45.998Z,18.40
2019-04-21T09:34:21.113Z,18.40
2019-04-21T09:36:49.515Z,18.40
2019-04-21T09:39:21.919Z,18.40
2019-04-21T09:41:53.494Z,18.40
2019-04-21T09:44:28.620Z,18.50
2019-04-21T09:46:57.865Z,18.50
2019-04-21T09:49:27.429Z,18.80
2019-04-21T09:51:55.288Z,18.70
2019-04-21T09:54:30.923Z,18.60
2019-04-21T09:57:01.633Z,18.60
2019-04-21T09:59:31.883Z,18.80
2019-04-21T10:02:08.467Z,19.00
2019-04-21T10:04:31.108Z,19.00
2019-04-21T10:07:00.795Z,18.80
2019-04-21T10:09:31.043Z,18.80
2019-04-21T10:12:01.147Z,19.00
2019-04-21T10:14:30.962Z,19.00
2019-04-21T10:17:37.532Z,19.20
2019-04-21T10:20:09.350Z,19.30
2019-04-21T10:22:39.393Z,19.40
2019-04-21T10:25:10.719Z,19.20
2019-04-21T10:27:41.274Z,19.20
2019-04-21T10:30:14.191Z,19.20
2019-04-21T10:32:43.780Z,19.40
2019-04-21T10:35:13.465Z,19.50
2019-04-21T10:37:53.606Z,19.60
2019-04-21T10:40:17.653Z,19.60
2019-04-21T10:42:48.132Z,19.70
2019-04-21T10:45:18.905Z,19.90
2019-04-21T10:47:49.314Z,20.00
2019-04-21T10:50:20.363Z,19.90
2019-04-21T10:53:27.271Z,19.80
2019-04-21T10:56:10.491Z,19.90
2019-04-21T10:58:32.044Z,19.80
2019-04-21T11:01:10.655Z,19.90
2019-04-21T11:03:55.100Z,20.00
2019-04-21T11:06:26.383Z,19.90
2019-04-21T11:08:57.871Z,19.80
2019-04-21T11:11:27.967Z,19.90
2019-04-21T11:13:58.757Z,20.20
2019-04-21T11:16:28.991Z,20.20
2019-04-21T11:18:59.881Z,20.30
2019-04-21T11:21:29.559Z,20.50
2019-04-21T11:23:59.232Z,20.40
2019-04-21T11:26:29.886Z,20.30
2019-04-21T11:29:00.784Z,20.50
2019-04-21T11:31:31.281Z,20.60
2019-04-21T11:34:01.045Z,20.50
2019-04-21T11:36:31.317Z,20.40
2019-04-21T11:39:37.518Z,20.20
2019-04-21T11:41:59.598Z,20.30
2019-04-21T11:44:29.303Z,20.30
2019-04-21T11:46:58.985Z,20.40
2019-04-21T11:49:31.113Z,20.50
2019-04-21T11:52:00.761Z,20.60
2019-04-21T11:54:30.959Z,20.50
2019-04-21T11:57:03.489Z,20.60
2019-04-21T11:59:33.375Z,20.60
2019-04-21T12:02:03.567Z,20.60
2019-04-21T12:04:33.677Z,20.70
2019-04-21T12:07:04.997Z,20.40
2019-04-21T12:09:35.412Z,20.50
2019-04-21T12:12:05.378Z,20.30
2019-04-21T12:14:36.271Z,20.20
2019-04-21T12:17:06.257Z,20.20
2019-04-21T12:19:36.710Z,20.40
2019-04-21T12:22:14.288Z,20.40
2019-04-21T12:24:39.566Z,20.60
2019-04-21T12:27:09.861Z,20.60
2019-04-21T12:29:39.939Z,20.60
2019-04-21T12:32:28.643Z,20.80
2019-04-21T12:34:59.708Z,20.80
2019-04-21T12:37:30.876Z,20.80
2019-04-21T12:40:00.803Z,20.80
2019-04-21T12:42:30.416Z,20.80
2019-04-21T12:45:01.272Z,20.80
2019-04-21T12:47:32.020Z,20.90
2019-04-21T12:50:02.741Z,20.90
2019-04-21T12:52:33.592Z,20.60
2019-04-21T12:55:03.819Z,20.50
2019-04-21T12:57:33.634Z,20.60
2019-04-21T13:00:04.729Z,20.70
2019-04-21T13:02:35.712Z,20.70
2019-04-21T13:05:07.383Z,20.70
2019-04-21T13:07:37.450Z,20.60
2019-04-21T13:10:08.838Z,20.50
2019-04-21T13:12:38.513Z,20.60
2019-04-21T13:15:08.790Z,20.70
2019-04-21T13:17:39.461Z,20.90
2019-04-21T13:20:09.574Z,21.00
2019-04-21T13:22:39.791Z,21.00
2019-04-21T13:25:09.773Z,20.90
2019-04-21T13:27:40.745Z,20.90
2019-04-21T13:30:12.965Z,20.90
2019-04-21T13:32:43.001Z,20.90
2019-04-21T13:35:15.087Z,21.00
2019-04-21T13:37:45.813Z,21.10
2019-04-21T13:40:57.060Z,21.00
2019-04-21T13:43:12.590Z,21.10
2019-04-21T13:45:43.536Z,21.00
2019-04-21T13:48:14.690Z,20.90
2019-04-21T13:50:44.458Z,21.00
2019-04-21T13:53:14.685Z,21.00
2019-04-21T13:55:44.704Z,21.00
2019-04-21T13:58:14.643Z,21.00
2019-04-21T14:00:45.467Z,21.10
2019-04-21T14:03:16.472Z,21.20
2019-04-21T14:05:46.584Z,21.40
2019-04-21T14:08:16.304Z,21.40
2019-04-21T14:10:47.339Z,21.50
2019-04-21T14:13:18.262Z,21.40
2019-04-21T14:15:50.002Z,21.30
2019-04-21T14:18:22.545Z,21.30
2019-04-21T14:20:53.298Z,21.10
2019-04-21T14:23:31.992Z,21.10
2019-04-21T14:25:55.465Z,21.20
2019-04-21T14:28:26.067Z,21.30
2019-04-21T14:30:56.509Z,21.40
2019-04-21T14:33:26.034Z,21.40
2019-04-21T14:35:56.828Z,21.40
2019-04-21T14:38:26.811Z,21.40
2019-04-21T14:40:56.579Z,21.40
2019-04-21T14:43:26.165Z,21.50
2019-04-21T14:46:15.230Z,21.50
2019-04-21T14:49:15.528Z,21.30
2019-04-21T14:51:58.970Z,21.30
2019-04-21T14:54:42.702Z,21.40
2019-04-21T14:57:13.491Z,21.40
2019-04-21T14:59:43.068Z,21.40
2019-04-21T15:02:13.929Z,21.30
2019-04-21T15:04:44.065Z,21.30
2019-04-21T15:10:05.818Z,21.10
2019-04-21T15:12:27.825Z,21.10
2019-04-21T15:14:58.164Z,21.10
2019-04-21T15:17:29.118Z,21.10
2019-04-21T15:20:04.216Z,21.00
2019-04-21T15:22:30.464Z,21.00
2019-04-21T15:25:00.642Z,21.10
2019-04-21T15:27:30.717Z,21.10
2019-04-21T15:30:00.578Z,21.10
2019-04-21T15:32:30.625Z,20.90
2019-04-21T15:35:00.374Z,21.00
2019-04-21T15:37:29.806Z,21.00
2019-04-21T15:40:13.426Z,21.10
2019-04-21T15:42:30.664Z,21.10
2019-04-21T15:45:00.933Z,21.00
2019-04-21T15:47:31.709Z,20.90
2019-04-21T15:50:07.413Z,20.90
2019-04-21T15:52:33.676Z,20.90
2019-04-21T15:55:08.447Z,20.90
2019-04-21T15:57:46.895Z,20.80
2019-04-21T16:00:38.743Z,20.80
2019-04-21T16:03:08.724Z,20.90
2019-04-21T16:05:38.536Z,20.90
2019-04-21T16:08:07.971Z,20.90
2019-04-21T16:10:46.558Z,20.90
2019-04-21T16:13:09.794Z,20.80
2019-04-21T16:15:40.732Z,20.80
2019-04-21T16:18:10.230Z,20.70
2019-04-21T16:20:39.924Z,20.70
2019-04-21T16:23:10.607Z,20.60
2019-04-21T16:25:41.113Z,20.60
2019-04-21T16:28:11.090Z,20.50
2019-04-21T16:30:40.429Z,20.60
2019-04-21T16:33:10.190Z,20.80
2019-04-21T16:35:39.942Z,21.50
2019-04-21T16:38:09.312Z,22.40
2019-04-21T16:40:46.533Z,23.30
2019-04-21T16:43:10.099Z,23.70
2019-04-21T16:45:41.009Z,24.00
2019-04-21T16:48:10.425Z,24.20
2019-04-21T16:50:39.815Z,24.40
2019-04-21T16:53:23.902Z,24.40
2019-04-21T16:55:57.420Z,24.20
2019-04-21T16:58:36.707Z,24.00
2019-04-21T17:01:13.947Z,24.10
2019-04-21T17:03:40.158Z,23.90
2019-04-21T17:06:11.043Z,23.60
2019-04-21T17:08:40.939Z,23.40
2019-04-21T17:11:18.526Z,23.10
2019-04-21T17:13:42.172Z,22.40
2019-04-21T17:16:44.925Z,21.70
2019-04-21T17:18:58.723Z,21.40
2019-04-21T17:21:16.790Z,21.10
2019-04-21T17:23:48.151Z,20.70
2019-04-21T17:26:19.265Z,20.30
2019-04-21T17:28:49.215Z,20.10
2019-04-21T17:31:20.225Z,19.80
2019-04-21T17:33:57.765Z,19.60
2019-04-21T17:36:21.081Z,19.40
2019-04-21T17:38:50.517Z,19.10
2019-04-21T17:41:29.017Z,19.00
2019-04-21T17:43:52.574Z,18.90
2019-04-21T17:46:30.516Z,18.80
2019-04-21T17:48:54.759Z,18.80
2019-04-21T17:51:40.596Z,18.60
2019-04-21T17:54:21.119Z,18.50
2019-04-21T17:57:07.115Z,18.50
2019-04-21T17:59:46.365Z,18.40
2019-04-21T18:02:03.941Z,18.20
2019-04-21T18:04:37.443Z,18.00
2019-04-21T18:07:31.543Z,17.90
2019-04-21T18:10:05.006Z,17.80
2019-04-21T18:12:31.295Z,17.70
2019-04-21T18:14:59.238Z,17.60
2019-04-21T18:17:18.532Z,17.50
2019-04-21T18:19:51.402Z,17.40
2019-04-21T18:22:52.995Z,17.30
2019-04-21T18:25:36.410Z,17.30
2019-04-21T18:27:56.435Z,17.20
2019-04-21T18:30:46.870Z,17.10
2019-04-21T18:33:23.388Z,17.00
2019-04-21T18:36:31.767Z,16.80
2019-04-21T18:39:18.163Z,16.70
2019-04-21T18:41:42.800Z,16.60
2019-04-21T18:44:58.353Z,16.60
2019-04-21T18:47:12.118Z,16.60
2019-04-21T18:49:29.156Z,16.60
2019-04-21T18:52:20.260Z,16.60
2019-04-21T18:54:55.656Z,16.50
2019-04-21T18:57:21.946Z,16.40
2019-04-21T18:59:43.629Z,16.30
2019-04-21T19:02:14.903Z,16.30
2019-04-21T19:04:43.128Z,16.20
2019-04-21T19:07:27.232Z,16.10
2019-04-21T19:14:57.978Z,15.80
2019-04-21T19:18:17.043Z,15.70
2019-04-21T19:22:35.992Z,15.30
2019-04-21T19:25:11.496Z,15.20
2019-04-21T19:27:36.866Z,15.30
2019-04-21T19:32:38.972Z,15.30
2019-04-21T19:34:59.443Z,15.30
2019-04-21T19:37:28.882Z,15.20
2019-04-21T19:40:07.988Z,15.20
2019-04-21T19:42:37.583Z,15.10
2019-04-21T19:45:20.625Z,15.10
2019-04-21T19:47:50.375Z,15.10
2019-04-21T19:50:26.414Z,15.10
2019-04-21T19:52:43.925Z,15.10
2019-04-21T19:55:04.498Z,15.00
2019-04-21T19:57:34.694Z,14.90
2019-04-21T20:00:07.449Z,14.80
2019-04-21T20:02:36.392Z,14.70
2019-04-21T20:05:11.578Z,14.60
2019-04-21T20:07:56.043Z,14.50
2019-04-21T20:10:26.890Z,14.40
2019-04-21T20:13:02.866Z,14.30
2019-04-21T20:15:36.058Z,14.30
2019-04-21T20:17:58.822Z,14.20
2019-04-21T20:20:15.161Z,14.20
2019-04-21T20:22:48.504Z,14.20
2019-04-21T20:25:19.183Z,14.10
2019-04-21T20:27:55.413Z,14.10
2019-04-21T20:30:40.492Z,14.00
2019-04-21T20:33:18.087Z,13.90
2019-04-21T20:35:48.564Z,13.80
2019-04-21T20:38:09.251Z,13.70
2019-04-21T20:40:33.289Z,13.60
2019-04-21T20:43:12.443Z,13.60
2019-04-21T20:45:49.276Z,13.40
2019-04-21T20:48:05.904Z,13.50
2019-04-21T20:50:38.046Z,13.50
2019-04-21T20:53:14.926Z,13.60
2019-04-21T20:55:37.890Z,13.60
2019-04-21T20:58:09.234Z,13.60
2019-04-21T21:00:56.189Z,13.70
2019-04-21T21:03:18.664Z,13.70
2019-04-21T21:05:45.786Z,13.70
2019-04-21T21:08:26.046Z,13.70
2019-04-21T21:10:51.174Z,13.70
2019-04-21T21:13:32.933Z,13.60
2019-04-21T21:16:04.105Z,13.50
2019-04-21T21:19:00.876Z,13.50
2019-04-21T21:21:00.368Z,13.40
2019-04-21T21:23:29.115Z,13.40
2019-04-21T21:26:04.421Z,13.40
2019-04-21T21:28:29.048Z,13.40
2019-04-21T21:30:59.377Z,13.30
2019-04-21T21:33:45.301Z,13.20
2019-04-21T21:36:06.603Z,13.10
2019-04-21T21:38:36.133Z,13.00
2019-04-21T21:40:57.365Z,13.00
2019-04-21T21:43:22.777Z,13.00
2019-04-21T21:45:55.667Z,12.90
2019-04-21T21:48:36.034Z,12.80
2019-04-21T21:51:03.318Z,12.70
2019-04-21T21:53:25.503Z,12.70
2019-04-21T21:55:53.778Z,12.60
2019-04-21T21:58:30.872Z,12.60
2019-04-21T22:00:58.912Z,12.60
2019-04-21T22:03:31.806Z,12.60
2019-04-21T22:06:03.784Z,12.50
2019-04-21T22:08:28.389Z,12.50
2019-04-21T22:10:58.974Z,12.40
2019-04-21T22:13:37.592Z,12.40
2019-04-21T22:16:04.839Z,12.20
2019-04-21T22:18:43.776Z,12.20
2019-04-21T22:21:14.222Z,12.10
2019-04-21T22:23:43.751Z,12.10
2019-04-21T22:26:05.169Z,12.10
2019-04-21T22:28:35.812Z,12.10
2019-04-21T22:31:15.250Z,12.00
2019-04-21T22:33:44.332Z,12.00
2019-04-21T22:36:20.988Z,12.00
2019-04-21T22:38:51.854Z,12.00
2019-04-21T22:41:19.265Z,12.00
2019-04-21T22:43:44.555Z,12.00
2019-04-21T22:46:15.006Z,11.90
2019-04-21T22:48:45.357Z,11.90
2019-04-21T22:51:21.152Z,11.80
2019-04-21T22:53:49.000Z,11.80
2019-04-21T22:56:23.843Z,11.80
2019-04-21T22:58:48.289Z,11.80
2019-04-21T23:01:27.729Z,11.70
2019-04-21T23:03:53.640Z,11.60
2019-04-21T23:06:24.755Z,11.50
2019-04-21T23:08:51.249Z,11.40
2019-04-21T23:11:21.556Z,11.40
2019-04-21T23:13:57.474Z,11.40
2019-04-21T23:16:27.077Z,11.40
2019-04-21T23:19:14.278Z,11.30
2019-04-21T23:21:36.189Z,11.30
2019-04-21T23:24:10.121Z,11.40
2019-04-21T23:26:43.568Z,11.40
2019-04-21T23:29:17.427Z,11.30
2019-04-21T23:31:47.885Z,11.30
2019-04-21T23:34:00.066Z,11.20
2019-04-21T23:36:32.229Z,11.20
2019-04-21T23:39:01.371Z,11.20
2019-04-21T23:41:36.106Z,11.10
2019-04-21T23:44:04.609Z,11.10
2019-04-21T23:46:35.271Z,11.10
2019-04-21T23:49:18.547Z,11.00
2019-04-21T23:51:44.978Z,10.90
2019-04-21T23:54:07.066Z,10.80
2019-04-21T23:56:41.954Z,10.80
2019-04-21T23:59:10.833Z,10.70
